createdAt,value
2022-12-01T00:03:19.771Z,100
2022-12-01T00:08:19.554Z,100
2022-12-01T00:13:19.734Z,100
2022-12-01T00:18:19.597Z,100
2022-12-01T00:23:19.580Z,100
2022-12-01T00:28:19.365Z,100
2022-12-01T00:33:19.523Z,100
2022-12-01T00:38:19.499Z,100
2022-12-01T00:43:19.646Z,100
2022-12-01T00:48:19.573Z,100
2022-12-01T00:53:19.584Z,100
2022-12-01T00:58:19.359Z,100
2022-12-01T01:03:19.466Z,100
2022-12-01T01:08:19.391Z,100
2022-12-01T01:13:20.050Z,100
2022-12-01T01:18:19.711Z,100
2022-12-01T01:23:19.333Z,100
2022-12-01T01:28:19.522Z,100
2022-12-01T01:33:19.321Z,100
2022-12-01T01:38:19.766Z,100
2022-12-01T01:43:21.583Z,100
2022-12-01T01:48:19.374Z,100
2022-12-01T01:53:19.557Z,100
2022-12-01T01:58:19.728Z,100
2022-12-01T02:03:20.431Z,100
2022-12-01T02:08:19.535Z,100
2022-12-01T02:13:26.984Z,100
2022-12-01T02:18:26.496Z,100
2022-12-01T02:23:39.413Z,100
2022-12-01T02:28:38.647Z,100
2022-12-01T02:33:22.081Z,100
2022-12-01T02:38:23.698Z,100
2022-12-01T02:43:23.033Z,100
2022-12-01T02:48:22.485Z,100
2022-12-01T02:53:23.127Z,100
2022-12-01T02:58:22.000Z,99.98633
2022-12-01T03:03:30.532Z,100
2022-12-01T03:08:25.141Z,99.86133
2022-12-01T03:13:25.801Z,99.98047
2022-12-01T03:18:27.914Z,99.90723
2022-12-01T03:23:20.205Z,99.70898
2022-12-01T03:28:22.422Z,99.72754
2022-12-01T03:33:21.629Z,99.84863
2022-12-01T03:38:21.496Z,99.85938
2022-12-01T03:43:22.593Z,99.91113
2022-12-01T03:48:19.529Z,99.80762
2022-12-01T03:53:22.853Z,99.86133
2022-12-01T03:58:22.889Z,99.94629
2022-12-01T04:03:27.172Z,99.98535
2022-12-01T04:08:19.294Z,99.8252
2022-12-01T04:13:22.753Z,99.86035
2022-12-01T04:18:19.282Z,99.86816
2022-12-01T04:23:29.606Z,99.9248
2022-12-01T04:28:19.221Z,99.96387
2022-12-01T04:33:19.273Z,100
2022-12-01T04:38:19.307Z,99.90137
2022-12-01T04:43:19.350Z,100
2022-12-01T04:48:19.291Z,99.93457
2022-12-01T04:53:19.184Z,99.78906
2022-12-01T04:58:19.305Z,99.81543
2022-12-01T05:03:19.447Z,99.92773
2022-12-01T05:08:19.280Z,99.97266
2022-12-01T05:13:19.596Z,99.85352
2022-12-01T05:18:19.288Z,99.78906
2022-12-01T05:23:19.369Z,99.80176
2022-12-01T05:28:19.231Z,99.84473
2022-12-01T05:33:19.409Z,99.66895
2022-12-01T05:38:19.396Z,99.875
2022-12-01T05:43:21.663Z,99.96094
2022-12-01T05:48:19.668Z,100
2022-12-01T05:53:19.850Z,99.91602
2022-12-01T05:58:19.506Z,99.9873
2022-12-01T06:03:19.349Z,99.96289
2022-12-01T06:08:19.878Z,99.98828
2022-12-01T06:13:22.109Z,99.97363
2022-12-01T06:18:19.250Z,99.96875
2022-12-01T06:23:19.180Z,99.89063
2022-12-01T06:28:19.348Z,100
2022-12-01T06:33:19.187Z,100
2022-12-01T06:38:19.185Z,99.83789
2022-12-01T06:43:19.240Z,99.91797
2022-12-01T06:48:19.249Z,100
2022-12-01T06:53:19.471Z,99.99121
2022-12-01T06:58:19.163Z,100
2022-12-01T07:03:19.187Z,100
2022-12-01T07:08:19.215Z,99.93457
2022-12-01T07:13:19.170Z,100
2022-12-01T07:18:21.207Z,99.94824
2022-12-01T07:23:19.313Z,99.90039
2022-12-01T07:28:19.205Z,99.82617
2022-12-01T07:33:19.403Z,100
2022-12-01T07:38:22.049Z,99.9541
2022-12-01T07:43:19.205Z,99.74414
2022-12-01T07:48:19.298Z,99.86914
2022-12-01T07:53:19.293Z,99.95996
2022-12-01T07:58:19.219Z,99.88184
2022-12-01T08:03:19.260Z,99.85938
2022-12-01T08:08:19.240Z,99.93945
2022-12-01T08:13:19.123Z,99.86328
2022-12-01T08:18:19.134Z,99.91992
2022-12-01T08:23:19.748Z,99.81348
2022-12-01T08:28:19.158Z,99.79297
2022-12-01T08:33:19.172Z,99.64551
2022-12-01T08:38:19.301Z,99.6582
2022-12-01T08:43:49.497Z,99.48633
2022-12-01T08:48:19.298Z,99.74609
2022-12-01T08:53:19.236Z,99.67676
2022-12-01T08:58:19.169Z,99.3877
2022-12-01T09:03:19.186Z,99.10059
2022-12-01T09:08:30.487Z,99.02539
2022-12-01T09:13:19.193Z,98.9082
2022-12-01T09:18:19.344Z,98.91699
2022-12-01T09:23:19.221Z,98.87598
2022-12-01T09:28:19.439Z,98.86133
2022-12-01T09:33:19.266Z,99.06055
2022-12-01T09:38:19.274Z,98.17285
2022-12-01T09:43:22.061Z,97.26172
2022-12-01T09:48:27.436Z,96.57715
2022-12-01T09:53:23.802Z,96.02734
2022-12-01T09:58:21.885Z,96.15527
2022-12-01T10:03:26.288Z,96.19727
2022-12-01T10:08:25.329Z,96.46387
2022-12-01T10:13:21.601Z,96.68945
2022-12-01T10:18:25.778Z,96.80664
2022-12-01T10:23:36.763Z,97.6748
2022-12-01T10:28:27.320Z,97.03418
2022-12-01T10:33:26.240Z,96.68652
2022-12-01T10:38:26.052Z,96.49609
2022-12-01T10:43:19.135Z,96.03027
2022-12-01T10:48:20.495Z,96.36914
2022-12-01T10:53:33.325Z,96.10352
2022-12-01T10:58:22.638Z,96.16406
2022-12-01T11:03:26.720Z,96.04199
2022-12-01T11:08:28.174Z,96.17383
2022-12-01T11:13:23.740Z,96.13379
2022-12-01T11:18:27.559Z,96.12988
2022-12-01T11:23:34.206Z,96.20605
2022-12-01T11:28:24.570Z,96.19629
2022-12-01T11:33:19.357Z,96.29492
2022-12-01T11:38:30.416Z,96.24609
2022-12-01T11:43:24.538Z,96.19336
2022-12-01T11:48:27.891Z,96.15332
2022-12-01T11:53:30.072Z,95.85938
2022-12-01T11:58:19.192Z,95.50977
2022-12-01T12:03:28.057Z,95.37988
2022-12-01T12:08:25.311Z,95.13477
2022-12-01T12:13:30.382Z,94.33203
2022-12-01T12:18:31.079Z,93.9541
2022-12-01T12:23:36.785Z,93.76172
2022-12-01T12:28:28.780Z,93.98145
2022-12-01T12:33:27.330Z,93.74121
2022-12-01T12:38:28.350Z,93.41797
2022-12-01T12:43:33.125Z,93.45801
2022-12-01T12:48:25.281Z,93.34277
2022-12-01T12:53:22.397Z,93.55078
2022-12-01T12:58:23.985Z,93.7832
2022-12-01T13:03:26.783Z,94.11816
2022-12-01T13:08:21.778Z,94.46387
2022-12-01T13:13:29.506Z,94.95215
2022-12-01T13:18:23.007Z,95.16406
2022-12-01T13:23:22.127Z,95.18359
2022-12-01T13:28:22.619Z,95.06543
2022-12-01T13:33:21.188Z,95.11426
2022-12-01T13:38:29.557Z,95.35547
2022-12-01T13:43:22.835Z,95.51074
2022-12-01T13:48:32.766Z,95.74902
2022-12-01T13:53:28.141Z,95.74707
2022-12-01T13:58:41.817Z,96.23633
2022-12-01T14:03:30.435Z,96.99902
2022-12-01T14:08:25.008Z,97.30176
2022-12-01T14:13:23.232Z,97.4834
2022-12-01T14:18:32.799Z,97.37305
2022-12-01T14:23:24.079Z,97.22363
2022-12-01T14:28:22.148Z,97.48047
2022-12-01T14:33:30.414Z,97.30957
2022-12-01T14:38:19.453Z,97.12988
2022-12-01T14:43:31.268Z,97.07617
2022-12-01T14:48:20.851Z,97.30859
2022-12-01T14:53:24.937Z,97.4043
2022-12-01T14:58:22.146Z,97.46191
2022-12-01T15:03:19.099Z,97.58496
2022-12-01T15:08:40.889Z,97.63574
2022-12-01T15:13:24.212Z,97.80664
2022-12-01T15:18:30.338Z,97.81348
2022-12-01T15:23:20.737Z,97.83496
2022-12-01T15:28:20.501Z,97.92871
2022-12-01T15:33:27.165Z,97.76758
2022-12-01T15:38:20.954Z,97.78906
2022-12-01T15:43:23.461Z,98
2022-12-01T15:48:28.777Z,97.93945
2022-12-01T15:53:27.713Z,97.79297
2022-12-01T15:58:23.440Z,97.94434
2022-12-01T16:03:19.292Z,97.94238
2022-12-01T16:08:24.028Z,97.87305
2022-12-01T16:13:30.325Z,97.9082
2022-12-01T16:18:29.987Z,98.0166
2022-12-01T16:23:22.325Z,98.02246
2022-12-01T16:28:24.896Z,98.00977
2022-12-01T16:33:22.322Z,98.03418
2022-12-01T16:38:20.426Z,98.21191
2022-12-01T16:43:21.031Z,98.17676
2022-12-01T16:48:20.016Z,98.29199
2022-12-01T16:53:19.455Z,98.14453
2022-12-01T16:58:19.348Z,98.2334
2022-12-01T17:03:20.343Z,98.23145
2022-12-01T17:08:20.178Z,98.25488
2022-12-01T17:13:19.646Z,98.22266
2022-12-01T17:18:20.214Z,98.24805
2022-12-01T17:23:18.969Z,98.37598
2022-12-01T17:28:19.007Z,98.36328
2022-12-01T17:33:19.077Z,98.32422
2022-12-01T17:38:19.137Z,98.31348
2022-12-01T17:43:20.657Z,98.40039
2022-12-01T17:48:18.931Z,98.32324
2022-12-01T17:53:19.067Z,98.26074
2022-12-01T17:58:21.264Z,98.3916
2022-12-01T18:03:19.044Z,98.39063
2022-12-01T18:08:19.009Z,98.45215
2022-12-01T18:13:21.302Z,98.39746
2022-12-01T18:18:19.098Z,98.50586
2022-12-01T18:23:19.047Z,98.40137
2022-12-01T18:28:19.008Z,98.40137
2022-12-01T18:33:20.687Z,98.28613
2022-12-01T18:38:18.980Z,98.45801
2022-12-01T18:43:19.160Z,98.45996
2022-12-01T18:48:19.982Z,98.44043
2022-12-01T18:53:19.579Z,98.44238
2022-12-01T18:58:18.967Z,98.39941
2022-12-01T19:03:19.020Z,98.40137
2022-12-01T19:08:20.410Z,98.35938
2022-12-01T19:13:19.864Z,98.31836
2022-12-01T19:18:19.600Z,98.38574
2022-12-01T19:23:19.947Z,98.49219
2022-12-01T19:28:20.649Z,98.39844
2022-12-01T19:33:23.127Z,98.41309
2022-12-01T19:38:19.011Z,98.4248
2022-12-01T19:43:18.912Z,98.45898
2022-12-01T19:48:19.009Z,98.45898
2022-12-01T19:53:19.152Z,98.4502
2022-12-01T19:58:19.462Z,98.53906
2022-12-01T20:03:20.973Z,98.46973
2022-12-01T20:08:18.985Z,98.48242
2022-12-01T20:13:18.891Z,98.47168
2022-12-01T20:18:19.023Z,98.56055
2022-12-01T20:23:18.942Z,98.55566
2022-12-01T20:28:18.935Z,98.49316
2022-12-01T20:33:19.050Z,98.5166
2022-12-01T20:38:25.842Z,98.49902
2022-12-01T20:43:20.091Z,98.54297
2022-12-01T20:48:27.028Z,98.57324
2022-12-01T20:53:20.188Z,98.5127
2022-12-01T20:58:20.457Z,98.5127
2022-12-01T21:03:19.109Z,98.65723
2022-12-01T21:08:18.982Z,98.50977
2022-12-01T21:13:33.428Z,98.58789
2022-12-01T21:18:23.184Z,98.53809
2022-12-01T21:23:19.863Z,98.62695
2022-12-01T21:28:22.205Z,98.63965
2022-12-01T21:33:26.528Z,98.6543
2022-12-01T21:38:21.985Z,98.62598
2022-12-01T21:43:21.624Z,98.7002
2022-12-01T21:48:22.787Z,98.7002
2022-12-01T21:53:20.664Z,98.70215
2022-12-01T21:58:35.872Z,98.83008
2022-12-01T22:03:30.085Z,98.73438
2022-12-01T22:08:28.771Z,98.75586
2022-12-01T22:13:19.013Z,98.7666
2022-12-01T22:18:23.565Z,98.74707
2022-12-01T22:23:19.108Z,98.71875
2022-12-01T22:28:23.303Z,98.79297
2022-12-01T22:33:23.679Z,98.75195
2022-12-01T22:38:24.118Z,98.73242
2022-12-01T22:43:29.894Z,98.75195
2022-12-01T22:48:25.400Z,98.75195
2022-12-01T22:53:20.520Z,98.74121
2022-12-01T22:58:24.987Z,98.82324
2022-12-01T23:03:19.728Z,98.86523
2022-12-01T23:08:19.839Z,98.80176
2022-12-01T23:13:22.473Z,98.87109
2022-12-01T23:18:21.995Z,98.81738
2022-12-01T23:23:20.308Z,98.91504
2022-12-01T23:28:19.172Z,98.91504
2022-12-01T23:33:22.088Z,98.87402
2022-12-01T23:38:22.716Z,98.81641
2022-12-01T23:43:22.274Z,98.83594
2022-12-01T23:48:23.009Z,98.8418
2022-12-01T23:53:27.294Z,98.84668
2022-12-01T23:58:19.006Z,98.7998
